sensor_id;sensor_type;location;lat;lon;timestamp;pressure;altitude;pressure_sealevel;temperature;humidity
67842;BME280;54642;59.126;37.876;2023-06-10T00:02:16;100718.78;;;9.82;58.46
67842;BME280;54642;59.126;37.876;2023-06-10T00:04:42;100736.06;;;9.84;58.41
67842;BME280;54642;59.126;37.876;2023-06-10T00:07:08;100628.56;;;9.25;58.32
67842;BME280;54642;59.126;37.876;2023-06-10T00:09:38;100666.72;;;9.46;58.26
67842;BME280;54642;59.126;37.876;2023-06-10T00:12:08;100717.88;;;9.78;58.39
67842;BME280;54642;59.126;37.876;2023-06-10T00:14:39;100737.78;;;9.85;58.57
67842;BME280;54642;59.126;37.876;2023-06-10T00:17:07;100742.13;;;9.86;58.55
67842;BME280;54642;59.126;37.876;2023-06-10T00:19:34;100742.09;;;9.85;58.60
67842;BME280;54642;59.126;37.876;2023-06-10T00:22:00;100684.81;;;9.46;58.35
67842;BME280;54642;59.126;37.876;2023-06-10T00:24:26;100747.25;;;9.80;58.35
67842;BME280;54642;59.126;37.876;2023-06-10T00:26:52;100752.44;;;9.83;58.43
67842;BME280;54642;59.126;37.876;2023-06-10T00:29:20;100703.00;;;9.54;58.27
67842;BME280;54642;59.126;37.876;2023-06-10T00:31:46;100736.88;;;9.77;58.01
67842;BME280;54642;59.126;37.876;2023-06-10T00:34:12;100744.53;;;9.66;58.25
67842;BME280;54642;59.126;37.876;2023-06-10T00:36:38;100702.97;;;9.51;58.13
67842;BME280;54642;59.126;37.876;2023-06-10T00:39:04;100708.13;;;9.48;58.00
67842;BME280;54642;59.126;37.876;2023-06-10T00:41:30;100700.31;;;9.43;57.92
67842;BME280;54642;59.126;37.876;2023-06-10T00:43:56;100773.97;;;9.79;58.10
67842;BME280;54642;59.126;37.876;2023-06-10T00:46:24;100761.84;;;9.73;58.01
67842;BME280;54642;59.126;37.876;2023-06-10T00:48:51;100764.41;;;9.72;57.83
67842;BME280;54642;59.126;37.876;2023-06-10T00:51:18;100754.88;;;9.66;57.82
67842;BME280;54642;59.126;37.876;2023-06-10T00:53:44;100788.56;;;9.71;57.89
67842;BME280;54642;59.126;37.876;2023-06-10T00:56:11;100741.75;;;9.46;57.75
67842;BME280;54642;59.126;37.876;2023-06-10T00:58:37;100785.00;;;9.60;57.69
67842;BME280;54642;59.126;37.876;2023-06-10T01:01:03;100768.53;;;9.53;57.93
67842;BME280;54642;59.126;37.876;2023-06-10T01:03:29;100751.13;;;9.38;57.56
67842;BME280;54642;59.126;37.876;2023-06-10T01:06:31;100798.00;;;9.67;57.52
67842;BME280;54642;59.126;37.876;2023-06-10T01:09:13;100759.78;;;9.40;57.43
67842;BME280;54642;59.126;37.876;2023-06-10T01:12:01;100816.94;;;9.62;57.52
67842;BME280;54642;59.126;37.876;2023-06-10T01:14:28;100794.41;;;9.54;57.55
67842;BME280;54642;59.126;37.876;2023-06-10T01:16:54;100810.84;;;9.57;57.39
67842;BME280;54642;59.126;37.876;2023-06-10T01:19:22;100807.31;;;9.48;57.28
67842;BME280;54642;59.126;37.876;2023-06-10T01:21:51;100807.28;;;9.47;57.21
67842;BME280;54642;59.126;37.876;2023-06-10T01:24:18;100812.47;;;9.48;57.44
67842;BME280;54642;59.126;37.876;2023-06-10T01:26:48;100807.13;;;9.34;57.55
67842;BME280;54642;59.126;37.876;2023-06-10T01:29:22;100812.34;;;9.38;57.60
67842;BME280;54642;59.126;37.876;2023-06-10T01:32:06;100820.97;;;9.38;57.55
67842;BME280;54642;59.126;37.876;2023-06-10T01:34:35;100819.22;;;9.37;57.66
67842;BME280;54642;59.126;37.876;2023-06-10T01:37:03;100813.16;;;9.35;57.46
67842;BME280;54642;59.126;37.876;2023-06-10T01:39:30;100828.75;;;9.40;57.61
67842;BME280;54642;59.126;37.876;2023-06-10T01:41:58;100841.63;;;9.35;57.34
67842;BME280;54642;59.126;37.876;2023-06-10T01:44:24;100827.81;;;9.33;57.29
67842;BME280;54642;59.126;37.876;2023-06-10T01:46:50;100837.31;;;9.34;57.46
67842;BME280;54642;59.126;37.876;2023-06-10T01:49:16;100841.63;;;9.35;57.27
67842;BME280;54642;59.126;37.876;2023-06-10T01:51:43;100839.91;;;9.34;57.40
67842;BME280;54642;59.126;37.876;2023-06-10T01:54:09;100849.34;;;9.30;57.51
67842;BME280;54642;59.126;37.876;2023-06-10T01:56:34;100744.31;;;8.74;57.49
67842;BME280;54642;59.126;37.876;2023-06-10T01:59:01;100837.28;;;9.31;57.14
67842;BME280;54642;59.126;37.876;2023-06-10T02:01:27;100853.72;;;9.36;56.83
67842;BME280;54642;59.126;37.876;2023-06-10T02:03:53;100854.56;;;9.37;56.67
67842;BME280;54642;59.126;37.876;2023-06-10T02:06:19;100860.53;;;9.31;56.69
67842;BME280;54642;59.126;37.876;2023-06-10T02:08:45;100805.81;;;8.99;56.38
67842;BME280;54642;59.126;37.876;2023-06-10T02:11:11;100811.06;;;9.03;56.30
67842;BME280;54642;59.126;37.876;2023-06-10T02:13:38;100868.41;;;9.39;56.38
67842;BME280;54642;59.126;37.876;2023-06-10T02:16:04;100874.31;;;9.30;56.36
67842;BME280;54642;59.126;37.876;2023-06-10T02:18:31;100889.13;;;9.40;56.10
67842;BME280;54642;59.126;37.876;2023-06-10T02:20:57;100831.88;;;9.14;56.20
67842;BME280;54642;59.126;37.876;2023-06-10T02:23:25;100872.66;;;9.35;56.03
67842;BME280;54642;59.126;37.876;2023-06-10T02:25:51;100826.56;;;9.02;56.23
67842;BME280;54642;59.126;37.876;2023-06-10T02:28:17;100869.97;;;9.26;56.20
67842;BME280;54642;59.126;37.876;2023-06-10T02:30:44;100897.59;;;9.30;56.31
67842;BME280;54642;59.126;37.876;2023-06-10T02:33:12;100852.34;;;8.99;56.19
67842;BME280;54642;59.126;37.876;2023-06-10T02:35:40;100895.66;;;9.15;55.91
67842;BME280;54642;59.126;37.876;2023-06-10T02:38:06;100900.09;;;9.24;56.42
67842;BME280;54642;59.126;37.876;2023-06-10T02:40:33;100888.00;;;9.20;56.47
67842;BME280;54642;59.126;37.876;2023-06-10T02:43:00;100855.09;;;9.09;56.31
67842;BME280;54642;59.126;37.876;2023-06-10T02:45:29;100898.59;;;9.38;56.02
67842;BME280;54642;59.126;37.876;2023-06-10T02:47:57;100891.59;;;9.31;56.11
67842;BME280;54642;59.126;37.876;2023-06-10T02:50:23;100891.63;;;9.34;55.97
67842;BME280;54642;59.126;37.876;2023-06-10T02:53:10;100908.97;;;9.41;55.88
67842;BME280;54642;59.126;37.876;2023-06-10T02:55:40;100876.00;;;9.26;56.04
67842;BME280;54642;59.126;37.876;2023-06-10T02:58:10;100916.94;;;9.58;55.76
67842;BME280;54642;59.126;37.876;2023-06-10T03:00:36;100913.53;;;9.61;55.67
67842;BME280;54642;59.126;37.876;2023-06-10T03:03:03;100925.72;;;9.68;55.51
67842;BME280;54642;59.126;37.876;2023-06-10T03:05:36;100931.03;;;9.80;55.37
67842;BME280;54642;59.126;37.876;2023-06-10T03:08:04;100863.34;;;9.49;55.38
67842;BME280;54642;59.126;37.876;2023-06-10T03:10:33;100932.03;;;9.91;55.11
67842;BME280;54642;59.126;37.876;2023-06-10T03:12:59;100873.84;;;9.59;54.77
67842;BME280;54642;59.126;37.876;2023-06-10T03:15:25;100844.94;;;9.26;55.16
67842;BME280;54642;59.126;37.876;2023-06-10T03:17:52;100935.16;;;9.64;54.98
67842;BME280;54642;59.126;37.876;2023-06-10T03:20:18;100947.19;;;9.61;55.10
67842;BME280;54642;59.126;37.876;2023-06-10T03:22:45;100941.16;;;9.62;55.33
67842;BME280;54642;59.126;37.876;2023-06-10T03:25:12;100936.91;;;9.67;55.13
67842;BME280;54642;59.126;37.876;2023-06-10T03:27:42;100950.84;;;9.78;55.09
67842;BME280;54642;59.126;37.876;2023-06-10T03:30:10;100943.81;;;9.66;55.19
67842;BME280;54642;59.126;37.876;2023-06-10T03:32:39;100929.97;;;9.63;54.97
67842;BME280;54642;59.126;37.876;2023-06-10T03:35:08;100915.13;;;9.51;55.14
67842;BME280;54642;59.126;37.876;2023-06-10T03:37:35;100953.50;;;9.83;54.88
67842;BME280;54642;59.126;37.876;2023-06-10T03:40:02;100934.41;;;9.74;54.68
67842;BME280;54642;59.126;37.876;2023-06-10T03:42:31;100951.88;;;9.92;54.60
67842;BME280;54642;59.126;37.876;2023-06-10T03:44:57;100968.44;;;10.04;54.37
67842;BME280;54642;59.126;37.876;2023-06-10T03:47:24;100959.78;;;10.02;54.39
67842;BME280;54642;59.126;37.876;2023-06-10T03:49:51;100962.28;;;9.96;54.67
67842;BME280;54642;59.126;37.876;2023-06-10T03:52:18;100944.94;;;9.88;54.30
67842;BME280;54642;59.126;37.876;2023-06-10T03:54:47;100977.13;;;10.09;54.24
67842;BME280;54642;59.126;37.876;2023-06-10T03:57:13;100966.81;;;10.15;53.92
67842;BME280;54642;59.126;37.876;2023-06-10T03:59:39;100975.53;;;10.20;53.71
67842;BME280;54642;59.126;37.876;2023-06-10T04:02:07;100969.38;;;10.12;53.48
67842;BME280;54642;59.126;37.876;2023-06-10T04:04:34;100960.69;;;10.08;53.52
67842;BME280;54642;59.126;37.876;2023-06-10T04:07:04;100990.19;;;10.18;53.58
67842;BME280;54642;59.126;37.876;2023-06-10T04:09:30;100973.66;;;10.10;53.48
67842;BME280;54642;59.126;37.876;2023-06-10T04:11:57;100984.13;;;10.19;53.67
67842;BME280;54642;59.126;37.876;2023-06-10T04:14:24;100979.78;;;10.15;54.06
67842;BME280;54642;59.126;37.876;2023-06-10T04:16:50;100888.66;;;9.72;53.91
67842;BME280;54642;59.126;37.876;2023-06-10T04:19:17;100934.78;;;10.05;53.60
67842;BME280;54642;59.126;37.876;2023-06-10T04:21:43;100983.50;;;10.37;53.68
67842;BME280;54642;59.126;37.876;2023-06-10T04:24:09;100978.34;;;10.40;53.70
67842;BME280;54642;59.126;37.876;2023-06-10T04:26:36;100985.38;;;10.51;53.54
67842;BME280;54642;59.126;37.876;2023-06-10T04:29:03;100981.03;;;10.48;53.59
67842;BME280;54642;59.126;37.876;2023-06-10T04:31:29;100968.94;;;10.47;54.04
67842;BME280;54642;59.126;37.876;2023-06-10T04:33:56;100986.31;;;10.57;54.09
67842;BME280;54642;59.126;37.876;2023-06-10T04:36:22;100960.41;;;10.57;53.84
67842;BME280;54642;59.126;37.876;2023-06-10T04:38:50;100983.09;;;10.83;53.38
67842;BME280;54642;59.126;37.876;2023-06-10T04:41:18;100987.41;;;10.81;53.31
67842;BME280;54642;59.126;37.876;2023-06-10T04:43:45;100935.50;;;10.76;53.36
67842;BME280;54642;59.126;37.876;2023-06-10T04:46:11;100984.28;;;11.22;53.02
67842;BME280;54642;59.126;37.876;2023-06-10T04:48:39;100980.91;;;11.32;52.55
67842;BME280;54642;59.126;37.876;2023-06-10T04:51:05;100980.91;;;11.35;52.53
67842;BME280;54642;59.126;37.876;2023-06-10T04:53:31;100996.50;;;11.40;52.25
67842;BME280;54642;59.126;37.876;2023-06-10T04:55:57;100990.44;;;11.36;51.90
67842;BME280;54642;59.126;37.876;2023-06-10T04:58:23;100988.56;;;11.17;51.97
67842;BME280;54642;59.126;37.876;2023-06-10T05:00:49;100971.94;;;10.93;52.07
67842;BME280;54642;59.126;37.876;2023-06-10T05:03:15;101010.78;;;10.87;52.73
67842;BME280;54642;59.126;37.876;2023-06-10T05:05:41;100987.44;;;10.84;52.87
67842;BME280;54642;59.126;37.876;2023-06-10T05:08:07;100972.75;;;10.89;53.04
67842;BME280;54642;59.126;37.876;2023-06-10T05:10:33;100982.50;;;11.15;53.17
67842;BME280;54642;59.126;37.876;2023-06-10T05:13:00;100988.66;;;11.29;53.13
67842;BME280;54642;59.126;37.876;2023-06-10T05:15:26;100961.75;;;11.21;53.05
67842;BME280;54642;59.126;37.876;2023-06-10T05:17:52;100955.84;;;11.40;52.27
67842;BME280;54642;59.126;37.876;2023-06-10T05:20:18;100985.44;;;11.69;52.06
67842;BME280;54642;59.126;37.876;2023-06-10T05:22:44;101001.06;;;11.79;52.19
67842;BME280;54642;59.126;37.876;2023-06-10T05:25:10;101000.16;;;11.68;52.66
67842;BME280;54642;59.126;37.876;2023-06-10T05:27:36;100998.44;;;11.78;52.79
67842;BME280;54642;59.126;37.876;2023-06-10T05:30:02;100987.19;;;11.76;52.38
67842;BME280;54642;59.126;37.876;2023-06-10T05:32:29;100982.84;;;11.70;51.89
67842;BME280;54642;59.126;37.876;2023-06-10T05:34:54;100994.09;;;11.72;52.02
67842;BME280;54642;59.126;37.876;2023-06-10T05:37:20;101009.81;;;11.91;51.65
67842;BME280;54642;59.126;37.876;2023-06-10T05:39:46;101013.31;;;12.05;51.55
67842;BME280;54642;59.126;37.876;2023-06-10T05:42:12;101003.78;;;11.99;51.45
67842;BME280;54642;59.126;37.876;2023-06-10T05:44:38;101008.00;;;11.85;52.02
67842;BME280;54642;59.126;37.876;2023-06-10T05:47:05;101009.69;;;11.72;51.42
67842;BME280;54642;59.126;37.876;2023-06-10T05:49:31;101007.88;;;11.62;51.40
67842;BME280;54642;59.126;37.876;2023-06-10T05:51:56;100953.31;;;11.47;51.48
67842;BME280;54642;59.126;37.876;2023-06-10T05:54:25;101013.28;;;11.94;51.12
67842;BME280;54642;59.126;37.876;2023-06-10T05:56:52;101009.91;;;12.09;50.94
67842;BME280;54642;59.126;37.876;2023-06-10T05:59:18;100970.72;;;11.72;50.41
67842;BME280;54642;59.126;37.876;2023-06-10T06:01:43;101013.28;;;11.93;51.25
67842;BME280;54642;59.126;37.876;2023-06-10T06:04:09;101007.09;;;11.78;51.02
67842;BME280;54642;59.126;37.876;2023-06-10T06:06:38;101006.19;;;11.67;51.17
67842;BME280;54642;59.126;37.876;2023-06-10T06:09:05;101014.91;;;11.78;50.89
67842;BME280;54642;59.126;37.876;2023-06-10T06:11:33;100975.09;;;11.86;50.71
67842;BME280;54642;59.126;37.876;2023-06-10T06:13:59;101004.75;;;12.28;50.11
67842;BME280;54642;59.126;37.876;2023-06-10T06:16:25;101015.22;;;12.55;49.55
67842;BME280;54642;59.126;37.876;2023-06-10T06:18:51;101017.84;;;12.58;49.73
67842;BME280;54642;59.126;37.876;2023-06-10T06:21:17;101008.28;;;12.42;49.37
67842;BME280;54642;59.126;37.876;2023-06-10T06:23:43;101007.38;;;12.31;48.94
67842;BME280;54642;59.126;37.876;2023-06-10T06:26:08;101027.28;;;12.26;49.25
67842;BME280;54642;59.126;37.876;2023-06-10T06:28:35;101028.13;;;12.17;49.32
67842;BME280;54642;59.126;37.876;2023-06-10T06:31:01;101015.97;;;12.17;49.05
67842;BME280;54642;59.126;37.876;2023-06-10T06:33:27;101024.69;;;12.32;48.63
67842;BME280;54642;59.126;37.876;2023-06-10T06:35:53;101023.91;;;12.59;48.37
67842;BME280;54642;59.126;37.876;2023-06-10T06:38:18;101008.34;;;12.67;47.56
67842;BME280;54642;59.126;37.876;2023-06-10T06:40:44;101015.25;;;12.68;46.85
67842;BME280;54642;59.126;37.876;2023-06-10T06:43:10;100926.78;;;12.34;46.70
67842;BME280;54642;59.126;37.876;2023-06-10T06:45:36;100978.00;;;12.83;47.02
67842;BME280;54642;59.126;37.876;2023-06-10T06:48:02;101013.56;;;13.19;46.67
67842;BME280;54642;59.126;37.876;2023-06-10T06:50:28;100968.47;;;12.94;46.99
67842;BME280;54642;59.126;37.876;2023-06-10T06:52:54;101022.25;;;13.06;47.56
67842;BME280;54642;59.126;37.876;2023-06-10T06:55:20;101029.13;;;12.82;48.21
67842;BME280;54642;59.126;37.876;2023-06-10T06:57:48;101012.66;;;12.65;48.10
67842;BME280;54642;59.126;37.876;2023-06-10T07:00:14;100997.84;;;12.39;47.96
67842;BME280;54642;59.126;37.876;2023-06-10T07:02:40;101015.28;;;12.77;47.83
67842;BME280;54642;59.126;37.876;2023-06-10T07:05:07;101030.91;;;13.12;47.09
67842;BME280;54642;59.126;37.876;2023-06-10T07:07:34;101028.31;;;13.06;46.91
67842;BME280;54642;59.126;37.876;2023-06-10T07:10:00;101017.03;;;13.18;46.43
67842;BME280;54642;59.126;37.876;2023-06-10T07:12:26;101021.38;;;13.51;46.37
67842;BME280;54642;59.126;37.876;2023-06-10T07:14:52;101029.97;;;13.87;46.09
67842;BME280;54642;59.126;37.876;2023-06-10T07:17:18;101006.44;;;14.10;45.81
67842;BME280;54642;59.126;37.876;2023-06-10T07:19:45;101019.41;;;14.27;45.35
67842;BME280;54642;59.126;37.876;2023-06-10T07:22:10;101033.44;;;13.91;45.20
67842;BME280;54642;59.126;37.876;2023-06-10T07:24:39;101043.94;;;13.52;45.57
67842;BME280;54642;59.126;37.876;2023-06-10T07:27:05;101038.69;;;13.11;45.81
67842;BME280;54642;59.126;37.876;2023-06-10T07:29:31;101043.94;;;12.99;46.04
67842;BME280;54642;59.126;37.876;2023-06-10T07:31:57;101043.03;;;13.07;46.16
67842;BME280;54642;59.126;37.876;2023-06-10T07:34:23;100997.09;;;13.06;46.52
67842;BME280;54642;59.126;37.876;2023-06-10T07:36:49;101039.63;;;13.31;47.00
67842;BME280;54642;59.126;37.876;2023-06-10T07:39:15;101031.78;;;13.25;46.28
67842;BME280;54642;59.126;37.876;2023-06-10T07:41:41;100982.34;;;13.11;46.27
67842;BME280;54642;59.126;37.876;2023-06-10T07:44:07;100967.59;;;12.89;46.17
67842;BME280;54642;59.126;37.876;2023-06-10T07:46:32;101029.19;;;12.91;46.31
67842;BME280;54642;59.126;37.876;2023-06-10T07:48:58;101051.72;;;12.86;46.55
67842;BME280;54642;59.126;37.876;2023-06-10T07:51:24;100983.94;;;12.25;47.19
67842;BME280;54642;59.126;37.876;2023-06-10T07:53:50;100970.00;;;11.98;47.34
67842;BME280;54642;59.126;37.876;2023-06-10T07:56:16;101047.25;;;12.40;47.67
67842;BME280;54642;59.126;37.876;2023-06-10T07:58:42;101048.19;;;12.61;47.54
67842;BME280;54642;59.126;37.876;2023-06-10T08:01:08;101049.97;;;13.16;46.71
67842;BME280;54642;59.126;37.876;2023-06-10T08:03:34;101044.81;;;13.58;46.09
67842;BME280;54642;59.126;37.876;2023-06-10T08:06:00;101051.75;;;13.59;45.69
67842;BME280;54642;59.126;37.876;2023-06-10T08:08:26;101062.16;;;13.45;45.67
67842;BME280;54642;59.126;37.876;2023-06-10T08:10:52;101055.22;;;13.22;45.86
67842;BME280;54642;59.126;37.876;2023-06-10T08:13:18;101053.47;;;13.03;46.18
67842;BME280;54642;59.126;37.876;2023-06-10T08:15:44;101043.88;;;12.78;46.19
67842;BME280;54642;59.126;37.876;2023-06-10T08:18:10;101057.75;;;12.73;46.39
67842;BME280;54642;59.126;37.876;2023-06-10T08:20:36;101079.44;;;12.72;46.42
67842;BME280;54642;59.126;37.876;2023-06-10T08:23:02;101003.03;;;12.30;46.63
67842;BME280;54642;59.126;37.876;2023-06-10T08:25:27;101059.50;;;12.74;46.49
67842;BME280;54642;59.126;37.876;2023-06-10T08:27:53;101045.63;;;12.80;46.58
67842;BME280;54642;59.126;37.876;2023-06-10T08:30:22;101077.72;;;12.86;45.85
67842;BME280;54642;59.126;37.876;2023-06-10T08:32:48;101055.16;;;12.76;45.57
67842;BME280;54642;59.126;37.876;2023-06-10T08:35:14;101062.09;;;12.80;45.91
67842;BME280;54642;59.126;37.876;2023-06-10T08:37:40;101037.78;;;12.66;46.04
67842;BME280;54642;59.126;37.876;2023-06-10T08:40:06;101055.16;;;12.70;46.06
67842;BME280;54642;59.126;37.876;2023-06-10T08:45:16;101064.59;;;12.48;46.79
67842;BME280;54642;59.126;37.876;2023-06-10T08:47:46;101031.59;;;12.20;47.54
67842;BME280;54642;59.126;37.876;2023-06-10T08:50:16;101068.91;;;12.43;47.27
67842;BME280;54642;59.126;37.876;2023-06-10T08:52:44;101039.47;;;12.36;47.10
67842;BME280;54642;59.126;37.876;2023-06-10T08:55:46;101081.22;;;12.97;46.81
67842;BME280;54642;59.126;37.876;2023-06-10T08:58:17;101079.53;;;13.33;46.61
67842;BME280;54642;59.126;37.876;2023-06-10T09:00:44;101077.78;;;13.45;46.15
67842;BME280;54642;59.126;37.876;2023-06-10T09:03:11;100990.97;;;12.75;46.61
67842;BME280;54642;59.126;37.876;2023-06-10T09:05:37;101079.50;;;13.18;46.85
67842;BME280;54642;59.126;37.876;2023-06-10T09:08:06;101094.25;;;13.25;46.84
67842;BME280;54642;59.126;37.876;2023-06-10T09:10:32;101021.34;;;12.74;46.40
67842;BME280;54642;59.126;37.876;2023-06-10T09:12:58;101092.50;;;13.23;46.58
67842;BME280;54642;59.126;37.876;2023-06-10T09:15:24;101101.19;;;13.28;47.00
67842;BME280;54642;59.126;37.876;2023-06-10T09:17:51;101095.16;;;13.35;46.62
67842;BME280;54642;59.126;37.876;2023-06-10T09:20:17;101026.56;;;12.99;46.71
67842;BME280;54642;59.126;37.876;2023-06-10T09:22:44;101100.38;;;13.49;46.84
67842;BME280;54642;59.126;37.876;2023-06-10T09:25:12;101092.56;;;13.49;46.22
67842;BME280;54642;59.126;37.876;2023-06-10T09:27:50;101084.72;;;13.41;46.13
67842;BME280;54642;59.126;37.876;2023-06-10T09:30:27;101062.16;;;13.29;46.17
67842;BME280;54642;59.126;37.876;2023-06-10T09:32:58;101052.59;;;13.22;45.98
67842;BME280;54642;59.126;37.876;2023-06-10T09:35:25;101105.56;;;13.46;46.36
67842;BME280;54642;59.126;37.876;2023-06-10T09:37:56;101098.63;;;13.42;46.45
67842;BME280;54642;59.126;37.876;2023-06-10T09:40:22;101089.09;;;13.33;46.25
67842;BME280;54642;59.126;37.876;2023-06-10T09:42:54;101063.00;;;12.97;46.92
67842;BME280;54642;59.126;37.876;2023-06-10T09:45:21;101130.69;;;13.19;47.73
67842;BME280;54642;59.126;37.876;2023-06-10T09:47:51;101098.50;;;12.80;48.09
67842;BME280;54642;59.126;37.876;2023-06-10T09:50:17;101146.19;;;12.82;48.92
67842;BME280;54642;59.126;37.876;2023-06-10T09:52:45;101144.41;;;12.59;49.93
67842;BME280;54642;59.126;37.876;2023-06-10T09:55:11;101133.16;;;12.67;50.83
67842;BME280;54642;59.126;37.876;2023-06-10T09:57:37;101135.00;;;12.97;50.15
67842;BME280;54642;59.126;37.876;2023-06-10T10:00:06;101135.09;;;13.31;50.07
67842;BME280;54642;59.126;37.876;2023-06-10T10:02:51;101088.19;;;13.26;50.23
67842;BME280;54642;59.126;37.876;2023-06-10T10:05:21;101128.13;;;13.53;50.16
67842;BME280;54642;59.126;37.876;2023-06-10T10:07:47;101115.13;;;13.42;48.97
67842;BME280;54642;59.126;37.876;2023-06-10T10:10:15;101113.38;;;13.35;48.05
67842;BME280;54642;59.126;37.876;2023-06-10T10:12:41;101099.47;;;13.21;48.10
67842;BME280;54642;59.126;37.876;2023-06-10T10:15:09;101110.69;;;13.09;48.41
67842;BME280;54642;59.126;37.876;2023-06-10T10:17:52;101119.41;;;13.09;48.07
67842;BME280;54642;59.126;37.876;2023-06-10T10:20:26;101110.69;;;13.00;48.60
67842;BME280;54642;59.126;37.876;2023-06-10T10:22:56;101067.28;;;12.78;48.26
67842;BME280;54642;59.126;37.876;2023-06-10T10:25:34;101070.81;;;12.91;47.87
67842;BME280;54642;59.126;37.876;2023-06-10T10:28:10;101126.38;;;13.33;47.49
67842;BME280;54642;59.126;37.876;2023-06-10T10:30:49;101084.72;;;13.16;47.43
67842;BME280;54642;59.126;37.876;2023-06-10T10:33:21;101083.84;;;13.21;47.25
67842;BME280;54642;59.126;37.876;2023-06-10T10:35:49;101073.41;;;13.16;47.04
67842;BME280;54642;59.126;37.876;2023-06-10T10:38:18;101115.97;;;13.33;47.18
67842;BME280;54642;59.126;37.876;2023-06-10T10:40:45;101036.09;;;12.83;48.10
67842;BME280;54642;59.126;37.876;2023-06-10T10:43:12;101076.91;;;13.06;48.57
67842;BME280;54642;59.126;37.876;2023-06-10T10:45:39;101135.94;;;13.31;48.80
67842;BME280;54642;59.126;37.876;2023-06-10T10:48:08;101112.47;;;13.28;48.61
67842;BME280;54642;59.126;37.876;2023-06-10T10:50:38;101127.25;;;13.48;48.28
67842;BME280;54642;59.126;37.876;2023-06-10T10:53:05;101099.50;;;13.65;47.66
67842;BME280;54642;59.126;37.876;2023-06-10T10:55:31;101121.16;;;13.86;47.19
67842;BME280;54642;59.126;37.876;2023-06-10T10:57:59;101056.06;;;13.67;46.70
67842;BME280;54642;59.126;37.876;2023-06-10T11:00:29;101120.28;;;13.82;45.90
67842;BME280;54642;59.126;37.876;2023-06-10T11:03:16;101102.94;;;13.75;45.95
67842;BME280;54642;59.126;37.876;2023-06-10T11:05:47;101093.41;;;13.63;45.65
67842;BME280;54642;59.126;37.876;2023-06-10T11:08:15;101122.06;;;13.63;46.10
67842;BME280;54642;59.126;37.876;2023-06-10T11:10:51;101100.34;;;13.57;45.91
67842;BME280;54642;59.126;37.876;2023-06-10T11:13:21;101091.69;;;13.42;46.26
67842;BME280;54642;59.126;37.876;2023-06-10T11:15:49;101111.66;;;13.48;46.06
67842;BME280;54642;59.126;37.876;2023-06-10T11:18:30;101102.09;;;13.45;46.01
67842;BME280;54642;59.126;37.876;2023-06-10T11:21:05;101096.91;;;13.34;45.48
67842;BME280;54642;59.126;37.876;2023-06-10T11:23:41;101096.91;;;13.34;45.83
67842;BME280;54642;59.126;37.876;2023-06-10T11:28:39;101095.16;;;13.73;45.01
67842;BME280;54642;59.126;37.876;2023-06-10T11:31:05;101081.19;;;13.96;44.01
67842;BME280;54642;59.126;37.876;2023-06-10T11:33:31;101088.97;;;14.13;44.01
67842;BME280;54642;59.126;37.876;2023-06-10T11:35:58;101075.09;;;14.05;44.08
67842;BME280;54642;59.126;37.876;2023-06-10T11:38:24;101095.97;;;13.94;44.03
67842;BME280;54642;59.126;37.876;2023-06-10T11:40:54;101122.03;;;13.94;44.42
67842;BME280;54642;59.126;37.876;2023-06-10T11:43:21;101118.59;;;13.73;44.71
67842;BME280;54642;59.126;37.876;2023-06-10T11:45:54;101132.50;;;13.52;45.23
67842;BME280;54642;59.126;37.876;2023-06-10T11:48:20;101116.81;;;13.25;46.27
67842;BME280;54642;59.126;37.876;2023-06-10T11:50:46;101134.16;;;13.23;46.52
67842;BME280;54642;59.126;37.876;2023-06-10T11:53:12;101093.34;;;12.95;46.41
67842;BME280;54642;59.126;37.876;2023-06-10T11:55:45;101156.72;;;13.19;46.32
67842;BME280;54642;59.126;37.876;2023-06-10T11:58:16;101107.22;;;12.91;46.04
67842;BME280;54642;59.126;37.876;2023-06-10T12:00:50;101090.72;;;12.92;46.18
67842;BME280;54642;59.126;37.876;2023-06-10T12:03:17;101115.94;;;13.21;46.12
67842;BME280;54642;59.126;37.876;2023-06-10T12:05:57;101115.94;;;13.30;45.96
67842;BME280;54642;59.126;37.876;2023-06-10T12:08:24;101118.56;;;13.52;45.41
67842;BME280;54642;59.126;37.876;2023-06-10T12:10:50;101110.75;;;13.77;44.93
67842;BME280;54642;59.126;37.876;2023-06-10T12:13:16;101068.19;;;13.82;44.38
67842;BME280;54642;59.126;37.876;2023-06-10T12:15:46;101103.72;;;14.22;44.09
67842;BME280;54642;59.126;37.876;2023-06-10T12:18:19;101058.53;;;14.20;43.95
67842;BME280;54642;59.126;37.876;2023-06-10T12:20:45;101098.47;;;14.25;44.22
67842;BME280;54642;59.126;37.876;2023-06-10T12:23:12;101135.88;;;14.16;44.24
67842;BME280;54642;59.126;37.876;2023-06-10T12:25:38;101069.97;;;13.59;44.93
67842;BME280;54642;59.126;37.876;2023-06-10T12:28:05;101136.81;;;13.80;44.91
67842;BME280;54642;59.126;37.876;2023-06-10T12:30:34;101142.03;;;13.73;44.55
67842;BME280;54642;59.126;37.876;2023-06-10T12:33:00;101138.56;;;13.65;44.71
67842;BME280;54642;59.126;37.876;2023-06-10T12:35:28;101088.16;;;13.23;44.83
67842;BME280;54642;59.126;37.876;2023-06-10T12:38:02;101069.06;;;13.12;44.95
67842;BME280;54642;59.126;37.876;2023-06-10T12:40:31;101146.34;;;13.71;44.94
67842;BME280;54642;59.126;37.876;2023-06-10T12:42:58;101098.63;;;13.45;44.92
67842;BME280;54642;59.126;37.876;2023-06-10T12:45:34;101121.19;;;13.44;45.02
67842;BME280;54642;59.126;37.876;2023-06-10T12:50:57;101151.59;;;13.47;45.26
67842;BME280;54642;59.126;37.876;2023-06-10T12:53:24;101073.41;;;12.99;45.23
67842;BME280;54642;59.126;37.876;2023-06-10T12:55:52;101074.28;;;13.03;45.06